Time;durP1;ratioP1;P1;durP2;ratioP2;P2;SDS_P1;SDS_P2;PMS_P1;PMS_P2;Temp;Humidity;BMP_temperature;BMP_pressure;BME280_temperature;BME280_humidity;BME280_pressure;Samples;Min_cycle;Max_cycle;Signal;HPM_P1;HPM_P2
2023/09/23 00:00:14;;;;;;;8.30;5.30;;;;;;;15.62;100.00;97149.48;110092;1245;69317;-63
2023/09/23 00:03:04;;;;;;;6.30;4.30;;;;;;;15.55;100.00;97145.91;109986;1248;59813;-61
2023/09/23 00:05:39;;;;;;;6.90;4.60;;;;;;;15.51;100.00;97143.80;109853;1244;59678;-61
2023/09/23 00:08:09;;;;;;;7.40;4.60;;;;;;;15.48;100.00;97141.70;109846;1244;71593;-61
2023/09/23 00:10:39;;;;;;;;;;;;;;;15.46;100.00;97140.48;109857;1244;67417;-60
2023/09/23 00:13:11;;;;;;;6.40;4.10;;;;;;;15.44;99.95;97142.24;109798;1243;69246;-63
2023/09/23 00:15:47;;;;;;;7.50;4.60;;;;;;;15.45;99.53;97141.96;109857;1243;59688;-61
2023/09/23 00:18:17;;;;;;;8.10;5.10;;;;;;;15.49;100.00;97138.98;109799;1246;59639;-60
2023/09/23 00:20:48;;;;;;;8.20;5.30;;;;;;;15.52;100.00;97138.30;109753;1244;71958;-60
2023/09/23 00:23:22;;;;;;;7.20;5.50;;;;;;;15.55;100.00;97132.08;109872;1246;69481;-61
2023/09/23 00:25:53;;;;;;;6.50;4.70;;;;;;;15.57;100.00;97133.50;110004;1243;67897;-60
2023/09/23 00:28:25;;;;;;;6.20;4.40;;;;;;;15.57;100.00;97135.42;109968;1243;59719;-61
2023/09/23 00:31:07;;;;;;;6.20;4.50;;;;;;;15.56;100.00;97132.64;109864;1245;59996;-60
2023/09/23 00:33:39;;;;;;;6.00;4.10;;;;;;;15.56;100.00;97132.65;109769;1246;70639;-62
2023/09/23 00:36:11;;;;;;;6.70;4.90;;;;;;;15.55;100.00;97133.14;109805;1245;69223;-61
2023/09/23 00:38:41;;;;;;;8.80;5.10;;;;;;;15.53;100.00;97133.10;109871;1246;69153;-61
2023/09/23 00:41:13;;;;;;;6.90;4.70;;;;;;;15.52;100.00;97133.57;109847;1243;59724;-62
2023/09/23 00:43:47;;;;;;;5.80;4.60;;;;;;;15.51;100.00;97132.73;109949;1244;60145;-61
2023/09/23 00:46:22;;;;;;;5.10;4.10;;;;;;;15.51;100.00;97132.96;109929;1246;70673;-61
2023/09/23 00:48:55;;;;;;;6.40;4.20;;;;;;;15.52;100.00;97132.20;109859;1244;69257;-62
2023/09/23 00:51:31;;;;;;;5.40;4.50;;;;;;;15.55;100.00;97137.68;109899;1246;69281;-61
2023/09/23 00:54:07;;;;;;;5.60;4.60;;;;;;;15.55;100.00;97136.10;109792;1246;59687;-61
2023/09/23 00:56:39;;;;;;;6.20;4.80;;;;;;;15.56;100.00;97135.84;109785;1247;59707;-61
2023/09/23 00:59:16;;;;;;;6.60;4.90;;;;;;;15.56;100.00;97143.19;109859;1252;71420;-61
2023/09/23 01:01:51;;;;;;;6.60;4.70;;;;;;;15.56;100.00;97142.46;109809;1246;68439;-62
2023/09/23 01:04:24;;;;;;;7.10;4.70;;;;;;;15.58;100.00;97144.95;109747;1252;69096;-60
2023/09/23 01:06:56;;;;;;;6.20;4.80;;;;;;;15.62;100.00;97153.70;109849;1244;60094;-61
2023/09/23 01:09:29;;;;;;;6.10;4.40;;;;;;;15.67;100.00;97157.46;109865;1245;60076;-60
2023/09/23 01:12:03;;;;;;;5.80;5.10;;;;;;;15.72;100.00;97157.65;109817;1243;71250;-61
2023/09/23 01:14:34;;;;;;;9.30;6.30;;;;;;;15.71;100.00;97154.02;109862;1246;69277;-60
2023/09/23 01:17:10;;;;;;;8.80;5.30;;;;;;;15.64;100.00;97153.14;109967;1253;68541;-60
2023/09/23 01:19:44;;;;;;;10.80;5.30;;;;;;;15.58;100.00;97152.20;109980;1243;59769;-59
2023/09/23 01:22:27;;;;;;;10.40;6.30;;;;;;;15.50;100.00;97150.08;109956;1248;59695;-60
2023/09/23 01:24:59;;;;;;;9.20;6.00;;;;;;;15.44;100.00;97150.54;109877;1249;70504;-61
2023/09/23 01:27:34;;;;;;;7.80;5.30;;;;;;;15.37;100.00;97157.32;109922;1246;69480;-61
2023/09/23 01:30:07;;;;;;;7.40;5.50;;;;;;;15.33;100.00;97157.59;110032;1245;68344;-63
2023/09/23 01:32:51;;;;;;;7.80;5.60;;;;;;;15.28;100.00;97153.29;110075;1249;59807;-63
2023/09/23 01:35:23;;;;;;;6.20;4.90;;;;;;;15.27;100.00;97154.27;109822;1245;59674;-63
2023/09/23 01:37:56;;;;;;;7.30;5.50;;;;;;;15.29;100.00;97153.00;110011;1245;70273;-62
2023/09/23 01:40:29;;;;;;;7.80;5.50;;;;;;;15.35;100.00;97149.77;109991;1246;69070;-61
2023/09/23 01:43:04;;;;;;;7.30;5.50;;;;;;;15.41;100.00;97146.20;109699;1247;69509;-61
2023/09/23 01:45:38;;;;;;;7.90;5.40;;;;;;;15.46;100.00;97148.09;109695;1249;59790;-60
2023/09/23 01:48:10;;;;;;;8.00;4.50;;;;;;;15.45;100.00;97142.88;109782;1248;59774;-63
2023/09/23 01:50:41;;;;;;;6.40;5.00;;;;;;;15.43;100.00;97141.98;109954;1246;71227;-61
2023/09/23 01:53:16;;;;;;;5.90;4.40;;;;;;;15.40;100.00;97147.40;109966;1245;69264;-61
2023/09/23 01:55:48;;;;;;;6.70;5.40;;;;;;;15.35;100.00;97150.37;110028;1245;68718;-61
2023/09/23 01:58:22;;;;;;;6.70;4.70;;;;;;;15.27;100.00;97147.38;109799;1248;59694;-60
2023/09/23 02:00:55;;;;;;;6.60;4.80;;;;;;;15.21;100.00;97149.39;109976;1245;59742;-61
2023/09/23 02:03:25;;;;;;;6.10;4.40;;;;;;;15.18;100.00;97155.64;109865;1244;70451;-63
2023/09/23 02:06:00;;;;;;;7.30;4.50;;;;;;;15.15;100.00;97154.85;109748;1245;69629;-62
2023/09/23 02:08:31;;;;;;;5.60;4.40;;;;;;;15.12;100.00;97149.16;109965;1245;69257;-61
2023/09/23 02:11:03;;;;;;;5.50;4.20;;;;;;;15.09;100.00;97153.69;109909;1245;59706;-62
2023/09/23 02:13:40;;;;;;;6.40;4.60;;;;;;;15.06;100.00;97154.13;110011;1245;59782;-61
2023/09/23 02:16:12;;;;;;;7.20;4.70;;;;;;;15.01;100.00;97157.22;109901;1245;71480;-61
2023/09/23 02:18:51;;;;;;;7.20;4.90;;;;;;;14.97;100.00;97151.86;109951;1244;68258;-61
2023/09/23 02:21:21;;;;;;;5.60;4.50;;;;;;;14.93;100.00;97152.54;110023;1245;67697;-61
2023/09/23 02:23:51;;;;;;;7.40;4.90;;;;;;;14.90;100.00;97155.33;109988;1245;59737;-63
2023/09/23 02:26:27;;;;;;;6.80;4.80;;;;;;;14.85;100.00;97150.55;109747;1245;59636;-62
2023/09/23 02:29:04;;;;;;;5.70;3.90;;;;;;;14.82;100.00;97149.26;110029;1246;71158;-62
2023/09/23 02:31:35;;;;;;;5.60;4.20;;;;;;;14.79;100.00;97145.67;109917;1246;69188;-61
2023/09/23 02:34:10;;;;;;;7.10;4.70;;;;;;;14.76;100.00;97140.15;109947;1245;69288;-60
2023/09/23 02:36:41;;;;;;;8.50;5.30;;;;;;;14.76;100.00;97140.98;109970;1245;59705;-61
2023/09/23 02:39:15;;;;;;;7.20;5.20;;;;;;;14.77;100.00;97139.30;110007;1245;59668;-60
2023/09/23 02:41:50;;;;;;;9.40;4.90;;;;;;;14.78;100.00;97136.75;109790;1245;70642;-61
2023/09/23 02:44:29;;;;;;;6.50;4.40;;;;;;;14.78;100.00;97137.44;109756;1247;69740;-60
2023/09/23 02:47:05;;;;;;;5.40;4.40;;;;;;;14.78;100.00;97132.95;109817;1245;69408;-62
2023/09/23 02:49:38;;;;;;;5.90;4.60;;;;;;;14.76;100.00;97129.09;110005;1245;59701;-63
2023/09/23 02:52:14;;;;;;;6.60;4.60;;;;;;;14.76;100.00;97129.09;109975;1244;59748;-62
2023/09/23 02:54:48;;;;;;;6.00;4.60;;;;;;;14.77;100.00;97128.41;109879;1245;71302;-63
2023/09/23 02:57:21;;;;;;;5.80;4.70;;;;;;;14.80;100.00;97131.19;109848;1245;68597;-62
2023/09/23 02:59:57;;;;;;;7.00;4.50;;;;;;;14.80;100.00;97136.12;110010;1244;69410;-62
2023/09/23 03:02:31;;;;;;;6.20;4.60;;;;;;;14.78;100.00;97135.60;110068;1245;59697;-63
2023/09/23 03:05:07;;;;;;;6.20;4.80;;;;;;;14.76;100.00;97137.29;110041;1245;59761;-63
2023/09/23 03:07:40;;;;;;;8.30;5.90;;;;;;;14.75;100.00;97134.66;110118;1245;71260;-62
2023/09/23 03:10:18;;;;;;;11.70;7.50;;;;;;;14.68;100.00;97147.53;109856;1246;69175;-62
2023/09/23 03:13:01;;;;;;;9.30;6.50;;;;;;;14.55;100.00;97155.97;109751;1249;69223;-61
2023/09/23 03:15:48;;;;;;;10.10;6.60;;;;;;;14.43;100.00;97157.37;110013;1245;59685;-62
2023/09/23 03:18:33;;;;;;;6.50;5.20;;;;;;;14.36;100.00;97153.86;109965;1246;59747;-61
2023/09/23 03:21:09;;;;;;;7.70;4.60;;;;;;;14.31;100.00;97154.13;110065;1244;70929;-61
2023/09/23 03:23:41;;;;;;;7.80;4.40;;;;;;;14.28;100.00;97155.66;110061;1246;69225;-61
2023/09/23 03:26:18;;;;;;;6.30;4.30;;;;;;;14.25;100.00;97156.57;109695;1245;67657;-61
2023/09/23 03:28:50;;;;;;;6.80;4.30;;;;;;;14.22;100.00;97154.88;109799;1243;59744;-61
2023/09/23 03:31:20;;;;;;;5.20;4.10;;;;;;;14.21;100.00;97152.62;110078;1243;59736;-61
2023/09/23 03:33:51;;;;;;;5.00;4.20;;;;;;;14.19;100.00;97153.84;109863;1245;71984;-61
2023/09/23 03:36:25;;;;;;;5.40;4.30;;;;;;;14.17;100.00;97155.45;110049;1245;68383;-61
2023/09/23 03:38:56;;;;;;;5.70;4.20;;;;;;;14.13;100.00;97158.92;109846;1244;69319;-61
2023/09/23 03:41:29;;;;;;;5.50;4.20;;;;;;;14.12;100.00;97159.58;109999;1245;59670;-62
2023/09/23 03:43:58;;;;;;;7.50;4.60;;;;;;;14.10;100.00;97162.20;110059;1246;59681;-63
2023/09/23 03:46:29;;;;;;;6.20;4.90;;;;;;;14.10;100.00;97166.94;109748;1245;70635;-62
2023/09/23 03:49:00;;;;;;;6.80;4.40;;;;;;;14.08;100.00;97168.86;109817;1247;68724;-60
2023/09/23 03:51:31;;;;;;;6.20;4.10;;;;;;;14.06;100.00;97171.67;109900;1245;70252;-61
2023/09/23 03:54:00;;;;;;;6.90;4.60;;;;;;;14.05;100.00;97175.45;109901;1248;59709;-61
2023/09/23 03:56:33;;;;;;;6.50;4.50;;;;;;;14.05;100.00;97179.83;110024;1246;59692;-60
2023/09/23 03:59:05;;;;;;;6.40;4.50;;;;;;;14.05;100.00;97183.85;109776;1244;71231;-60
2023/09/23 04:01:39;;;;;;;7.80;4.90;;;;;;;14.03;100.00;97185.25;109766;1244;68519;-60
2023/09/23 04:04:10;;;;;;;6.00;4.50;;;;;;;14.01;100.00;97186.64;109761;1243;69267;-61
2023/09/23 04:06:42;;;;;;;5.90;4.40;;;;;;;14.01;100.00;97190.02;109811;1245;59712;-60
2023/09/23 04:09:13;;;;;;;6.20;4.20;;;;;;;13.99;100.00;97193.81;109783;1251;59634;-61
2023/09/23 04:11:43;;;;;;;6.60;4.50;;;;;;;13.99;100.00;97197.70;109935;1244;71516;-61
2023/09/23 04:14:13;;;;;;;6.20;4.70;;;;;;;13.97;100.00;97198.89;109769;1243;68559;-62
2023/09/23 04:16:43;;;;;;;6.10;4.50;;;;;;;13.97;100.00;97198.76;109879;1244;68515;-60
2023/09/23 04:19:14;;;;;;;6.00;4.90;;;;;;;13.96;100.00;97199.37;109962;1244;59703;-61
2023/09/23 04:21:44;;;;;;;5.70;4.00;;;;;;;13.95;100.00;97205.40;109902;1244;59710;-61
2023/09/23 04:24:13;;;;;;;;;;;;;;;13.95;100.00;97207.89;109952;1244;71367;-61
2023/09/23 04:26:43;;;;;;;4.60;3.70;;;;;;;13.93;100.00;97214.38;109789;1245;68213;-60
2023/09/23 04:29:14;;;;;;;;;;;;;;;13.92;100.00;97214.96;109770;1245;70250;-59
2023/09/23 04:31:45;;;;;;;8.80;4.80;;;;;;;13.92;100.00;97213.52;109723;1244;59708;-60
2023/09/23 04:34:17;;;;;;;8.30;6.20;;;;;;;13.93;100.00;97208.73;109828;1244;59671;-61
2023/09/23 04:36:48;;;;;;;8.20;6.00;;;;;;;13.97;100.00;97209.07;109930;1245;71246;-62
2023/09/23 04:39:18;;;;;;;7.00;4.70;;;;;;;14.03;100.00;97214.30;109945;1246;67540;-60
2023/09/23 04:41:47;;;;;;;8.70;5.40;;;;;;;14.13;100.00;97216.23;109918;1244;69692;-60
2023/09/23 04:44:17;;;;;;;7.40;4.70;;;;;;;14.25;100.00;97224.42;109793;1244;59692;-60
2023/09/23 04:46:47;;;;;;;6.40;4.70;;;;;;;14.38;100.00;97228.84;109794;1244;59764;-61
2023/09/23 04:49:16;;;;;;;5.70;4.30;;;;;;;14.48;100.00;97230.73;109876;1244;71333;-61
2023/09/23 04:51:46;;;;;;;6.70;5.20;;;;;;;14.61;100.00;97225.36;109937;1245;69139;-60
2023/09/23 04:54:16;;;;;;;6.80;5.30;;;;;;;14.72;100.00;97221.94;109761;1245;70217;-60
2023/09/23 04:56:47;;;;;;;7.10;4.40;;;;;;;14.86;100.00;97221.35;109810;1244;59704;-60
2023/09/23 04:59:16;;;;;;;7.70;4.80;;;;;;;15.04;100.00;97227.89;110030;1245;59682;-60
2023/09/23 05:01:46;;;;;;;8.30;5.30;;;;;;;15.22;100.00;97233.20;109821;1244;71969;-60
2023/09/23 05:04:15;;;;;;;5.70;4.80;;;;;;;15.36;100.00;97229.42;109838;1244;69278;-64
2023/09/23 05:06:45;;;;;;;;;;;;;;;15.53;100.00;97232.93;109927;1244;68461;-60
2023/09/23 05:09:16;;;;;;;5.40;4.20;;;;;;;15.68;100.00;97237.96;109792;1244;59742;-61
2023/09/23 05:11:47;;;;;;;8.10;4.70;;;;;;;15.86;100.00;97239.63;109757;1244;59636;-62
2023/09/23 05:14:16;;;;;;;7.90;5.10;;;;;;;16.01;100.00;97239.17;109804;1244;71361;-60
2023/09/23 05:16:46;;;;;;;7.10;5.10;;;;;;;16.17;100.00;97241.96;109866;1245;69844;-60
2023/09/23 05:19:20;;;;;;;6.90;4.80;;;;;;;16.38;100.00;97248.95;109883;1244;69122;-60
2023/09/23 05:21:50;;;;;;;8.80;5.70;;;;;;;16.57;100.00;97253.14;109789;1244;59704;-60
2023/09/23 05:24:20;;;;;;;;;;;;;;;16.73;100.00;97255.92;109796;1244;59702;-60
2023/09/23 05:26:49;;;;;;;7.10;5.50;;;;;;;16.93;100.00;97255.91;109959;1245;72384;-62
2023/09/23 05:29:20;;;;;;;8.50;6.20;;;;;;;17.11;100.00;97256.05;109867;1244;67511;-60
2023/09/23 05:31:49;;;;;;;8.00;5.60;;;;;;;17.36;100.00;97258.00;109760;1244;69862;-60
2023/09/23 05:34:19;;;;;;;7.50;6.20;;;;;;;17.55;100.00;97257.68;109817;1244;59649;-60
2023/09/23 05:36:49;;;;;;;6.60;5.20;;;;;;;17.79;100.00;97253.91;109861;1245;59704;-61
2023/09/23 05:39:19;;;;;;;5.70;5.10;;;;;;;18.21;100.00;97252.20;109780;1244;70924;-62
2023/09/23 05:41:50;;;;;;;5.90;4.40;;;;;;;18.59;99.34;97260.23;109984;1244;69805;-61
2023/09/23 05:44:23;;;;;;;7.70;5.50;;;;;;;18.82;95.46;97265.41;109868;1245;69884;-62
2023/09/23 05:46:52;;;;;;;7.60;5.90;;;;;;;18.92;93.70;97271.55;109972;1243;59702;-61
2023/09/23 05:49:22;;;;;;;8.40;5.70;;;;;;;19.15;94.28;97278.69;109810;1244;59745;-61
2023/09/23 05:51:54;;;;;;;7.80;5.40;;;;;;;19.36;93.92;97280.95;110014;1244;70488;-62
2023/09/23 05:54:23;;;;;;;7.40;5.20;;;;;;;19.52;91.85;97287.67;110035;1244;68518;-61
2023/09/23 05:56:53;;;;;;;;;;;;;;;19.51;90.16;97285.33;109989;1244;69851;-61
2023/09/23 05:59:22;;;;;;;7.10;4.60;;;;;;;19.84;91.36;97285.15;110071;1244;59738;-61
2023/09/23 06:01:51;;;;;;;8.20;5.00;;;;;;;20.16;92.85;97285.39;110052;1245;59677;-61
2023/09/23 06:04:20;;;;;;;10.70;6.80;;;;;;;20.47;91.66;97279.40;110016;1244;71330;-61
2023/09/23 06:06:50;;;;;;;9.80;5.40;;;;;;;20.57;87.45;97281.66;109971;1244;70204;-61
2023/09/23 06:09:19;;;;;;;5.30;4.40;;;;;;;20.75;89.97;97277.73;110000;1244;69320;-61
2023/09/23 06:11:48;;;;;;;10.50;4.60;;;;;;;21.06;84.66;97285.27;109855;1245;59737;-61
2023/09/23 06:14:17;;;;;;;9.20;5.60;;;;;;;21.34;86.58;97294.73;109983;1245;59688;-61
2023/09/23 06:16:48;;;;;;;;;;;;;;;21.13;80.87;97302.46;109937;1244;71466;-60
2023/09/23 06:19:18;;;;;;;7.60;6.00;;;;;;;21.02;83.39;97306.66;110006;1244;69248;-62
2023/09/23 06:21:48;;;;;;;;;;;;;;;21.16;81.44;97306.80;109864;1245;69717;-60
2023/09/23 06:24:17;;;;;;;6.70;5.60;;;;;;;21.22;79.95;97310.51;109879;1245;59693;-61
2023/09/23 06:26:46;;;;;;;9.50;6.40;;;;;;;21.57;79.92;97315.09;110077;1244;59664;-61
2023/09/23 06:29:16;;;;;;;9.00;6.00;;;;;;;21.79;80.94;97313.71;110031;1246;71890;-60
2023/09/23 06:31:45;;;;;;;5.90;5.20;;;;;;;22.02;80.70;97309.55;109931;1245;69296;-61
2023/09/23 06:34:16;;;;;;;6.50;4.90;;;;;;;22.38;81.21;97303.14;109835;1244;69771;-60
2023/09/23 06:36:47;;;;;;;7.30;5.30;;;;;;;22.65;76.05;97302.15;109997;1242;59721;-61
2023/09/23 06:39:17;;;;;;;7.80;5.30;;;;;;;22.82;75.84;97305.93;110082;1243;59674;-62
2023/09/23 06:41:46;;;;;;;;;;;;;;;22.88;74.19;97311.16;110030;1244;71695;-61
2023/09/23 06:44:15;;;;;;;7.60;5.40;;;;;;;22.94;74.15;97317.17;109902;1244;70023;-60
2023/09/23 06:46:45;;;;;;;7.70;5.10;;;;;;;22.99;74.01;97317.45;109773;1244;68396;-60
2023/09/23 06:49:14;;;;;;;;;;;;;;;22.92;72.62;97321.16;109836;1244;59730;-60
2023/09/23 06:51:45;;;;;;;7.40;5.40;;;;;;;23.00;72.55;97327.64;109807;1244;59681;-62
2023/09/23 06:54:14;;;;;;;6.20;4.90;;;;;;;23.23;71.16;97331.14;109846;1244;71315;-62
2023/09/23 06:56:43;;;;;;;5.20;4.70;;;;;;;23.74;69.56;97332.80;109824;1244;68662;-61
2023/09/23 06:59:12;;;;;;;6.70;5.00;;;;;;;24.22;68.48;97334.13;109855;1244;69935;-60
2023/09/23 07:01:41;;;;;;;6.30;4.50;;;;;;;24.70;65.41;97340.44;109877;1244;59753;-61
2023/09/23 07:04:10;;;;;;;8.30;5.50;;;;;;;25.16;65.46;97339.52;109757;1246;59720;-62
2023/09/23 07:06:40;;;;;;;7.20;5.40;;;;;;;25.48;64.75;97343.30;109749;1245;71561;-62
2023/09/23 07:09:09;;;;;;;7.10;5.20;;;;;;;25.61;62.20;97346.70;109822;1245;69408;-62
2023/09/23 07:11:38;;;;;;;8.50;4.30;;;;;;;25.36;61.23;97349.48;109815;1243;69265;-61
2023/09/23 07:14:08;;;;;;;5.70;4.50;;;;;;;25.58;60.25;97354.52;109785;1246;59750;-62
2023/09/23 07:16:37;;;;;;;7.40;4.40;;;;;;;26.12;62.21;97356.73;109847;1243;59685;-61
2023/09/23 07:19:07;;;;;;;5.80;3.90;;;;;;;26.60;59.23;97351.20;110030;1243;71763;-62
2023/09/23 07:21:37;;;;;;;6.80;4.30;;;;;;;26.82;57.39;97344.70;109818;1244;67366;-62
2023/09/23 07:24:06;;;;;;;6.30;3.90;;;;;;;27.16;57.24;97337.88;109996;1244;68510;-63
2023/09/23 07:26:40;;;;;;;5.60;3.90;;;;;;;27.55;56.45;97337.67;109802;1243;59731;-61
2023/09/23 07:29:09;;;;;;;7.10;3.80;;;;;;;27.97;57.38;97335.66;109841;1244;59717;-61
2023/09/23 07:31:38;;;;;;;7.50;3.50;;;;;;;28.22;54.33;97329.88;109820;1243;71151;-61
2023/09/23 07:34:08;;;;;;;6.20;3.70;;;;;;;28.48;53.35;97329.56;109806;1244;69734;-61
2023/09/23 07:36:37;;;;;;;6.50;3.70;;;;;;;28.81;51.88;97328.73;109905;1242;69774;-61
2023/09/23 07:39:07;;;;;;;9.00;4.80;;;;;;;29.12;51.16;97327.21;109926;1244;59690;-61
2023/09/23 07:41:37;;;;;;;7.20;4.30;;;;;;;29.17;48.39;97323.89;109957;1244;59758;-61
2023/09/23 07:44:07;;;;;;;5.80;3.90;;;;;;;29.39;49.55;97327.59;109811;1243;72097;-61
2023/09/23 07:46:36;;;;;;;5.80;3.80;;;;;;;29.72;49.12;97337.64;109842;1244;69332;-61
2023/09/23 07:49:06;;;;;;;8.30;4.40;;;;;;;29.63;46.40;97338.27;109907;1244;69234;-61
2023/09/23 07:51:37;;;;;;;6.30;3.60;;;;;;;29.97;47.49;97332.77;109830;1243;59734;-61
2023/09/23 07:54:07;;;;;;;4.70;3.50;;;;;;;30.14;48.04;97328.50;109945;1244;59698;-61
2023/09/23 07:56:36;;;;;;;5.30;3.30;;;;;;;30.45;46.61;97331.70;109964;1242;71970;-61
2023/09/23 07:59:06;;;;;;;6.20;3.90;;;;;;;30.73;45.52;97332.44;109862;1244;70313;-61
2023/09/23 08:01:35;;;;;;;4.80;3.60;;;;;;;30.80;42.99;97327.54;109974;1246;69380;-61
2023/09/23 08:04:04;;;;;;;6.00;3.50;;;;;;;30.81;43.15;97331.08;110082;1244;60139;-62
2023/09/23 08:06:33;;;;;;;4.80;3.30;;;;;;;31.22;43.87;97326.55;110049;1243;59800;-61
2023/09/23 08:09:05;;;;;;;4.30;2.80;;;;;;;31.82;42.87;97330.13;110034;1244;72024;-61
2023/09/23 08:11:34;;;;;;;6.20;3.30;;;;;;;32.35;43.58;97325.21;109938;1244;69288;-63
2023/09/23 08:14:03;;;;;;;6.60;3.20;;;;;;;32.86;42.10;97319.59;109985;1243;69855;-61
2023/09/23 08:16:33;;;;;;;4.70;3.30;;;;;;;32.81;38.48;97315.65;110142;1241;59679;-61
2023/09/23 08:19:03;;;;;;;5.90;2.80;;;;;;;32.40;38.54;97315.91;110100;1244;59681;-61
2023/09/23 08:21:32;;;;;;;9.60;3.50;;;;;;;32.34;39.19;97322.43;110164;1244;71949;-61
2023/09/23 08:24:01;;;;;;;4.70;3.20;;;;;;;32.74;37.54;97312.16;109963;1242;69243;-61
2023/09/23 08:26:30;;;;;;;5.60;3.50;;;;;;;32.75;37.48;97314.28;109887;1243;69877;-61
2023/09/23 08:29:00;;;;;;;5.50;3.20;;;;;;;32.82;37.42;97309.91;110174;1244;59692;-62
2023/09/23 08:31:29;;;;;;;5.80;3.30;;;;;;;33.03;36.67;97307.90;110182;1244;59678;-62
2023/09/23 08:33:58;;;;;;;4.10;2.70;;;;;;;33.12;36.61;97301.21;110120;1241;70650;-62
2023/09/23 08:36:27;;;;;;;5.10;3.40;;;;;;;33.46;37.29;97294.16;109966;1244;69652;-62
2023/09/23 08:38:56;;;;;;;6.10;3.70;;;;;;;33.64;36.17;97290.59;110037;1243;69269;-62
2023/09/23 08:41:27;;;;;;;4.80;3.10;;;;;;;33.84;35.06;97298.19;109979;1243;59748;-62
2023/09/23 08:43:59;;;;;;;5.80;3.60;;;;;;;34.18;35.47;97300.53;110150;1243;59654;-62
2023/09/23 08:46:31;;;;;;;4.60;3.20;;;;;;;34.26;35.19;97294.70;110194;1242;71934;-62
2023/09/23 08:49:00;;;;;;;5.20;3.10;;;;;;;34.28;34.30;97294.55;110203;1244;69866;-61
2023/09/23 08:51:30;;;;;;;6.00;2.90;;;;;;;34.40;34.37;97289.22;110097;1242;70039;-61
2023/09/23 08:53:59;;;;;;;8.20;3.40;;;;;;;34.62;33.56;97290.54;110075;1244;59771;-62
2023/09/23 08:56:28;;;;;;;5.30;2.80;;;;;;;35.07;33.31;97284.96;110181;1241;59718;-61
2023/09/23 08:58:57;;;;;;;5.90;2.90;;;;;;;35.53;33.71;97285.09;110139;1243;71182;-61
2023/09/23 09:01:26;;;;;;;5.70;3.00;;;;;;;35.79;31.91;97287.16;110122;1243;69682;-61
2023/09/23 09:03:55;;;;;;;7.00;3.80;;;;;;;35.85;32.38;97283.38;109859;1247;69400;-61
2023/09/23 09:06:29;;;;;;;5.60;3.00;;;;;;;35.89;31.03;97278.30;109512;1245;579268;-61
2023/09/23 09:09:02;;;;;;;6.00;2.60;;;;;;;35.90;31.53;97279.77;110094;1244;59667;-61
2023/09/23 09:11:31;;;;;;;6.50;3.10;;;;;;;35.96;31.20;97281.55;109940;1244;71895;-62
2023/09/23 09:14:00;;;;;;;8.00;3.50;;;;;;;35.76;30.96;97280.91;109926;1244;69829;-60
2023/09/23 09:16:30;;;;;;;6.80;3.50;;;;;;;35.46;30.28;97276.60;109907;1244;69695;-63
2023/09/23 09:18:59;;;;;;;8.30;3.30;;;;;;;35.32;31.13;97272.98;109891;1244;59742;-62
2023/09/23 09:21:28;;;;;;;9.00;3.60;;;;;;;35.72;31.10;97271.61;109985;1244;59676;-62
2023/09/23 09:23:57;;;;;;;7.30;3.50;;;;;;;35.99;30.30;97270.58;109965;1244;71762;-62
2023/09/23 09:26:26;;;;;;;5.00;3.00;;;;;;;35.81;30.75;97265.83;109903;1244;69808;-61
2023/09/23 09:28:56;;;;;;;5.60;3.00;;;;;;;36.16;30.19;97254.17;109800;1244;69682;-62
2023/09/23 09:31:33;;;;;;;5.30;2.70;;;;;;;36.56;30.32;97253.86;109916;1244;59692;-61
2023/09/23 09:34:05;;;;;;;5.50;3.20;;;;;;;36.94;29.67;97257.94;109968;1243;59666;-62
2023/09/23 09:36:38;;;;;;;6.70;3.40;;;;;;;37.05;28.96;97259.77;109842;1243;71977;-61
2023/09/23 09:39:08;;;;;;;6.90;3.00;;;;;;;36.96;28.23;97256.34;109835;1243;69746;-61
2023/09/23 09:41:46;;;;;;;7.50;3.20;;;;;;;36.89;28.43;97256.08;109910;1244;69147;-61
2023/09/23 09:44:16;;;;;;;;;;;;;;;36.96;28.31;97257.27;109947;1244;59755;-62
2023/09/23 09:46:45;;;;;;;7.40;3.30;;;;;;;36.96;27.92;97258.36;109980;1243;59682;-62
2023/09/23 09:49:16;;;;;;;6.90;3.20;;;;;;;36.83;27.98;97261.13;109918;1242;71964;-62
2023/09/23 09:51:49;;;;;;;8.70;2.90;;;;;;;37.21;28.22;97263.71;110057;1242;69668;-63
2023/09/23 09:54:21;;;;;;;6.00;3.20;;;;;;;37.45;27.63;97258.27;110113;1244;69273;-63
2023/09/23 09:56:52;;;;;;;5.50;2.70;;;;;;;37.23;27.39;97260.92;110001;1244;59684;-62
2023/09/23 09:59:27;;;;;;;6.20;3.20;;;;;;;37.07;28.32;97255.27;110051;1243;59706;-64
2023/09/23 10:01:58;;;;;;;7.80;3.50;;;;;;;37.64;27.18;97257.63;109982;1244;71662;-62
2023/09/23 10:04:31;;;;;;;7.40;3.60;;;;;;;37.25;27.47;97258.50;110054;1244;69818;-62
2023/09/23 10:07:01;;;;;;;7.60;3.50;;;;;;;37.00;27.18;97257.78;109985;1244;69690;-63
2023/09/23 10:09:32;;;;;;;10.90;4.10;;;;;;;36.49;27.79;97255.25;109873;1244;59825;-63
2023/09/23 10:12:02;;;;;;;10.00;4.30;;;;;;;36.15;28.21;97252.61;109974;1244;59671;-63
2023/09/23 10:14:34;;;;;;;7.90;3.50;;;;;;;36.17;28.21;97251.06;109945;1242;71377;-63
2023/09/23 10:17:05;;;;;;;7.10;3.40;;;;;;;36.16;28.78;97246.05;109950;1243;69696;-62
2023/09/23 10:19:39;;;;;;;7.30;3.20;;;;;;;36.07;28.70;97243.05;109956;1244;69857;-62
2023/09/23 10:22:20;;;;;;;8.30;3.30;;;;;;;36.26;28.96;97239.48;109983;1244;59700;-62
2023/09/23 10:25:11;;;;;;;7.40;3.10;;;;;;;36.68;28.93;97238.20;109950;1242;59698;-61
2023/09/23 10:27:56;;;;;;;7.30;2.70;;;;;;;36.89;28.18;97230.80;110021;1243;71219;-63
2023/09/23 10:30:26;;;;;;;5.80;2.80;;;;;;;37.49;27.43;97228.91;110046;1242;69269;-62
2023/09/23 10:32:55;;;;;;;8.00;3.00;;;;;;;37.86;27.38;97225.86;109994;1250;70279;-61
2023/09/23 10:35:26;;;;;;;6.70;2.70;;;;;;;38.37;27.06;97218.60;110024;1244;59704;-61
2023/09/23 10:37:55;;;;;;;6.60;2.90;;;;;;;38.71;26.43;97213.44;109981;1244;59653;-60
2023/09/23 10:40:24;;;;;;;6.10;2.90;;;;;;;38.87;25.79;97211.52;109974;1244;71551;-60
2023/09/23 10:42:53;;;;;;;7.80;2.90;;;;;;;38.63;25.47;97216.20;109815;1246;70098;-62
2023/09/23 10:45:23;;;;;;;6.00;3.10;;;;;;;38.40;25.35;97219.77;110049;1243;69920;-62
2023/09/23 10:47:53;;;;;;;6.70;2.80;;;;;;;38.37;25.51;97219.98;109992;1244;59752;-62
2023/09/23 10:50:22;;;;;;;8.40;2.90;;;;;;;38.29;25.03;97219.73;110032;1243;59707;-63
2023/09/23 10:52:53;;;;;;;10.00;3.00;;;;;;;38.57;25.28;97215.52;110025;1244;72127;-61
2023/09/23 10:55:23;;;;;;;5.70;2.50;;;;;;;38.34;24.86;97209.90;109981;1242;69157;-62
2023/09/23 10:57:54;;;;;;;6.90;2.70;;;;;;;38.10;24.85;97206.74;109987;1244;69741;-62
2023/09/23 11:00:25;;;;;;;8.40;3.30;;;;;;;38.37;25.59;97208.71;109851;1246;59745;-61
2023/09/23 11:02:54;;;;;;;7.30;3.00;;;;;;;38.68;24.90;97210.31;109942;1244;59699;-61
2023/09/23 11:05:24;;;;;;;8.30;2.90;;;;;;;38.31;24.77;97214.38;109962;1244;72245;-62
2023/09/23 11:07:56;;;;;;;8.20;3.00;;;;;;;38.42;25.12;97205.73;109933;1244;69207;-61
2023/09/23 11:10:27;;;;;;;6.60;2.80;;;;;;;38.91;24.93;97198.39;109887;1242;69274;-62
2023/09/23 11:12:57;;;;;;;7.10;3.00;;;;;;;38.71;24.52;97188.49;110052;1246;59700;-63
2023/09/23 11:15:29;;;;;;;8.60;3.10;;;;;;;38.38;25.18;97188.83;110086;1244;59637;-62
2023/09/23 11:17:58;;;;;;;7.00;2.80;;;;;;;38.18;25.48;97185.98;110089;1244;71999;-62
2023/09/23 11:20:29;;;;;;;6.30;2.70;;;;;;;37.91;25.47;97183.64;109926;1242;68459;-61
2023/09/23 11:23:05;;;;;;;6.50;2.50;;;;;;;37.64;26.10;97179.17;109965;1243;69922;-64
2023/09/23 11:25:42;;;;;;;7.90;3.10;;;;;;;37.45;26.29;97177.73;110056;1244;59763;-62
2023/09/23 11:28:24;;;;;;;6.80;3.10;;;;;;;37.23;26.53;97174.61;109985;1244;59706;-62
2023/09/23 11:30:55;;;;;;;7.80;3.20;;;;;;;37.24;26.80;97171.58;110048;1244;71046;-63
2023/09/23 11:33:25;;;;;;;7.80;2.70;;;;;;;37.21;26.51;97167.52;109980;1244;69820;-61
2023/09/23 11:35:57;;;;;;;8.30;3.40;;;;;;;37.16;26.85;97165.02;110102;1244;69897;-62
2023/09/23 11:38:26;;;;;;;6.70;2.80;;;;;;;37.31;26.24;97157.94;110054;1244;59708;-61
2023/09/23 11:40:56;;;;;;;6.60;2.20;;;;;;;37.43;26.02;97152.36;109782;1243;59751;-61
2023/09/23 11:43:27;;;;;;;8.20;3.00;;;;;;;37.79;25.87;97145.49;110025;1243;70641;-61